Time;durP1;ratioP1;P1;durP2;ratioP2;P2;SDS_P1;SDS_P2;PMS_P1;PMS_P2;Temp;Humidity;BMP_temperature;BMP_pressure;BME280_temperature;BME280_humidity;BME280_pressure;Samples;Min_cycle;Max_cycle;Signal;HPM_P1;HPM_P2
2021/05/29 00:01:14;;;;;;;3.67;2.15;;;;;;;16.42;81.79;100172.90;1687859;84;20973;-35
2021/05/29 00:03:41;;;;;;;4.30;2.75;;;;;;;16.41;81.87;100171.17;1713167;83;21103;-37
2021/05/29 00:06:07;;;;;;;4.95;2.40;;;;;;;16.38;81.98;100165.66;1713138;83;21045;-34
2021/05/29 00:08:34;;;;;;;3.15;1.95;;;;;;;16.38;82.07;100172.63;1687814;85;20941;-37
2021/05/29 00:11:01;;;;;;;2.02;1.80;;;;;;;16.37;82.10;100166.58;1683032;85;21456;-37
2021/05/29 00:13:29;;;;;;;3.02;2.30;;;;;;;16.35;82.31;100167.55;1682987;85;20977;-34
2021/05/29 00:15:56;;;;;;;3.52;2.70;;;;;;;16.34;82.51;100169.78;1687643;85;21128;-37
2021/05/29 00:18:24;;;;;;;4.40;2.45;;;;;;;16.30;82.65;100173.02;1682889;85;20982;-37
2021/05/29 00:20:51;;;;;;;3.50;1.75;;;;;;;16.29;82.82;100175.69;1683175;85;20925;-37
2021/05/29 00:23:18;;;;;;;2.15;1.95;;;;;;;16.26;82.87;100180.58;1682972;85;21598;-36
2021/05/29 00:25:44;;;;;;;6.75;1.80;;;;;;;16.23;82.95;100181.59;1682996;85;21128;-36
2021/05/29 00:28:14;;;;;;;3.37;2.05;;;;;;;16.20;83.03;100188.70;1687596;85;21078;-35
2021/05/29 00:30:42;;;;;;;3.47;2.42;;;;;;;16.17;83.16;100194.94;1683051;85;21071;-35
2021/05/29 00:33:08;;;;;;;2.62;2.12;;;;;;;16.15;83.34;100194.13;1687855;85;20926;-37
2021/05/29 00:35:36;;;;;;;2.72;2.00;;;;;;;16.14;83.42;100198.14;1683112;85;21050;-37
2021/05/29 00:38:04;;;;;;;3.47;1.80;;;;;;;16.16;83.44;100194.99;1687767;84;21032;-37
2021/05/29 00:40:31;;;;;;;12.37;2.83;;;;;;;16.16;83.39;100196.30;1683130;85;21086;-37
2021/05/29 00:42:57;;;;;;;2.83;2.25;;;;;;;16.16;83.51;100193.69;1687717;85;20949;-35
2021/05/29 00:45:24;;;;;;;6.05;2.00;;;;;;;16.18;83.52;100204.91;1683075;85;21005;-35
2021/05/29 00:47:50;;;;;;;4.58;2.15;;;;;;;16.21;83.53;100207.38;1687673;85;21041;-35
2021/05/29 00:50:17;;;;;;;12.10;2.77;;;;;;;16.23;83.43;100224.67;1702262;83;21686;-37
2021/05/29 00:52:43;;;;;;;51.53;6.10;;;;;;;16.27;83.14;100234.50;1782061;80;21642;-34
2021/05/29 00:55:13;;;;;;;58.10;5.60;;;;;;;16.32;83.19;100245.61;1782482;80;20993;-36
2021/05/29 00:57:46;;;;;;;26.00;3.33;;;;;;;16.41;83.16;100249.53;1782429;80;20914;-37
2021/05/29 01:00:16;;;;;;;20.62;4.25;;;;;;;16.51;82.99;100253.87;1782404;80;21037;-37
2021/05/29 01:02:43;;;;;;;17.40;4.10;;;;;;;16.59;83.00;100234.80;1782644;80;20962;-38
2021/05/29 01:05:11;;;;;;;30.30;4.30;;;;;;;16.63;83.47;100221.97;1782615;80;21082;-36
2021/05/29 01:07:39;;;;;;;14.95;3.77;;;;;;;16.59;84.06;100228.70;1782351;80;20929;-37
2021/05/29 02:33:37;;;;;;;12.85;10.03;;;;;;;15.08;98.30;100173.98;1778496;78;26417;-39
2021/05/29 02:36:05;;;;;;;13.98;8.45;;;;;;;15.10;98.54;100181.27;1732235;81;20953;-37
2021/05/29 02:38:33;;;;;;;13.18;5.80;;;;;;;15.16;98.53;100187.53;1730694;82;21135;-39
2021/05/29 02:41:02;;;;;;;8.98;5.22;;;;;;;15.22;98.55;100197.69;1729730;81;21534;-37
2021/05/29 02:43:28;;;;;;;4.08;3.67;;;;;;;15.29;98.62;100181.81;1728113;81;21059;-40
2021/05/29 02:45:54;;;;;;;5.97;3.92;;;;;;;15.35;98.63;100168.50;1726301;82;21064;-39
2021/05/29 02:48:21;;;;;;;7.17;3.60;;;;;;;15.39;98.57;100153.11;1732054;81;21004;-40
2021/05/29 02:50:48;;;;;;;7.80;3.95;;;;;;;15.41;98.67;100142.16;1735047;81;21106;-39
2021/05/29 02:53:15;;;;;;;6.83;3.87;;;;;;;15.44;98.71;100138.11;1733881;81;21479;-39
2021/05/29 02:55:43;;;;;;;4.12;3.72;;;;;;;15.48;98.75;100144.05;1731060;81;21108;-38
2021/05/29 03:04:48;;;;;;;5.33;4.78;;;;;;;15.52;99.01;100119.52;1775749;79;26406;-40
2021/05/29 03:07:15;;;;;;;6.97;4.95;;;;;;;15.44;99.19;100113.33;1736506;81;20905;-39
2021/05/29 03:09:41;;;;;;;8.60;4.85;;;;;;;15.43;99.22;100099.07;1738273;81;21074;-38
2021/05/29 03:12:10;;;;;;;6.22;4.20;;;;;;;15.44;99.25;100087.72;1734192;81;21620;-39
2021/05/29 03:14:38;;;;;;;4.10;3.72;;;;;;;15.41;99.32;100079.56;1726124;82;21064;-39
2021/05/29 03:17:04;;;;;;;4.37;3.37;;;;;;;15.35;99.42;100088.50;1734370;82;21076;-39
2021/05/29 03:19:31;;;;;;;4.08;3.60;;;;;;;15.34;99.62;100088.11;1726591;81;20940;-38
2021/05/29 03:21:57;;;;;;;6.80;3.45;;;;;;;15.33;99.69;100087.72;1728022;81;21096;-38
2021/05/29 03:24:24;;;;;;;9.33;3.10;;;;;;;15.34;99.84;100076.84;1723400;82;21633;-38
2021/05/29 03:26:50;;;;;;;3.10;2.85;;;;;;;15.34;99.82;100067.25;1719565;82;21533;-39
2021/05/29 03:29:18;;;;;;;4.67;3.35;;;;;;;15.37;99.94;100066.28;1724783;81;21037;-39
2021/05/29 03:31:44;;;;;;;5.72;3.00;;;;;;;15.38;99.99;100054.94;1714119;82;20934;-40
2021/05/29 03:34:11;;;;;;;4.75;3.10;;;;;;;15.40;99.99;100054.41;1724823;82;21116;-39
2021/05/29 03:36:38;;;;;;;9.35;3.33;;;;;;;15.40;100.00;100057.01;1738900;82;21018;-40
2021/05/29 03:39:08;;;;;;;6.03;3.62;;;;;;;15.41;100.00;100057.84;1727861;82;21523;-39
2021/05/29 03:41:35;;;;;;;4.87;3.20;;;;;;;15.44;100.00;100056.42;1732109;82;20975;-38
2021/05/29 03:44:01;;;;;;;8.73;3.55;;;;;;;15.47;100.00;100061.02;1722930;82;20977;-39
2021/05/29 03:46:30;;;;;;;6.97;3.35;;;;;;;15.50;100.00;100058.27;1722833;82;21088;-39
2021/05/29 03:48:56;;;;;;;6.85;3.12;;;;;;;15.56;100.00;100051.11;1709336;83;21010;-39
2021/05/29 03:51:22;;;;;;;4.78;3.90;;;;;;;15.62;100.00;100053.44;1720086;82;20970;-39
2021/05/29 03:53:49;;;;;;;6.70;3.40;;;;;;;15.65;100.00;100048.07;1727173;82;20961;-38
2021/05/29 03:56:16;;;;;;;5.00;3.40;;;;;;;15.70;100.00;100057.00;1721772;82;20954;-39
2021/05/29 03:58:42;;;;;;;10.35;3.45;;;;;;;15.76;100.00;100049.70;1742606;82;21084;-39
2021/05/29 04:01:09;;;;;;;6.00;3.65;;;;;;;15.86;100.00;100045.38;1740340;82;21132;-39
2021/05/29 04:03:35;;;;;;;3.47;3.30;;;;;;;15.92;100.00;100051.64;1725833;82;21729;-38
2021/05/29 04:06:03;;;;;;;5.78;3.90;;;;;;;16.02;100.00;100053.36;1737144;82;21634;-39
2021/05/29 04:08:32;;;;;;;4.10;3.47;;;;;;;16.08;100.00;100052.61;1739417;82;20993;-39
2021/05/29 04:15:32;;;;;;;6.65;4.08;;;;;;;16.24;100.00;100057.08;1800378;78;26293;-38
2021/05/29 04:18:00;;;;;;;3.85;3.52;;;;;;;16.21;100.00;100059.84;1773120;80;21422;-38
2021/05/29 04:20:26;;;;;;;4.50;4.10;;;;;;;16.35;100.00;100059.17;1771272;80;21103;-39
2021/05/29 04:22:53;;;;;;;3.87;3.50;;;;;;;16.58;100.00;100059.36;1750030;80;21052;-38
2021/05/29 04:25:23;;;;;;;5.17;3.75;;;;;;;16.89;100.00;100071.31;1773631;80;21021;-39
2021/05/29 04:27:50;;;;;;;9.95;3.65;;;;;;;17.23;100.00;100063.91;1773774;80;20942;-38
2021/05/29 04:30:20;;;;;;;8.75;3.55;;;;;;;17.61;100.00;100061.97;1772088;79;20851;-38
2021/05/29 04:32:46;;;;;;;13.08;3.67;;;;;;;17.99;100.00;100059.00;1775274;80;21004;-39
2021/05/29 04:35:13;;;;;;;9.65;4.05;;;;;;;18.29;100.00;100049.54;1776428;80;21044;-38
2021/05/29 04:37:40;;;;;;;12.47;4.20;;;;;;;18.61;100.00;100050.75;1774700;80;21539;-38
2021/05/29 04:40:09;;;;;;;12.10;3.37;;;;;;;18.88;99.12;100057.91;1770321;80;21033;-38
2021/05/29 04:42:36;;;;;;;8.28;2.75;;;;;;;19.12;98.17;100055.64;1774053;80;21101;-40
2021/05/29 04:45:08;;;;;;;7.53;2.35;;;;;;;19.32;97.32;100051.80;1776747;80;21061;-37
2021/05/29 04:47:35;;;;;;;2.72;2.00;;;;;;;19.53;96.44;100045.67;1775262;80;21610;-40
2021/05/29 04:50:04;;;;;;;5.55;2.30;;;;;;;19.88;95.98;100047.49;1773044;80;21483;-36
2021/05/29 04:52:31;;;;;;;2.95;1.80;;;;;;;20.18;94.91;100040.73;1770793;80;21013;-38
2021/05/29 04:54:58;;;;;;;3.87;1.77;;;;;;;20.57;94.10;100038.19;1774145;80;20973;-36
2021/05/29 04:57:25;;;;;;;3.22;1.42;;;;;;;20.88;90.63;100032.22;1776014;80;21046;-38
2021/05/29 04:59:51;;;;;;;3.92;2.10;;;;;;;20.96;87.19;100033.84;1772912;80;20930;-39
2021/05/29 05:02:17;;;;;;;2.37;1.60;;;;;;;20.94;86.20;100038.36;1774780;80;20910;-37
2021/05/29 05:04:44;;;;;;;2.37;1.50;;;;;;;20.79;83.45;100043.31;1776056;80;20988;-38
2021/05/29 05:07:12;;;;;;;1.90;1.52;;;;;;;20.62;82.66;100040.52;1778547;80;20993;-37
2021/05/29 05:09:38;;;;;;;1.60;1.50;;;;;;;20.50;81.62;100036.92;1777640;80;22378;-38
2021/05/29 05:12:07;;;;;;;2.67;1.70;;;;;;;20.35;81.31;100035.70;1774415;80;20977;-36
2021/05/29 05:14:34;;;;;;;2.27;1.42;;;;;;;20.18;81.12;100033.34;1751891;80;21017;-36
2021/05/29 05:17:02;;;;;;;1.55;1.45;;;;;;;20.15;81.64;100029.59;1745696;81;20889;-37
2021/05/29 05:19:28;;;;;;;1.82;1.32;;;;;;;20.16;81.46;100015.52;1748452;82;20909;-38
2021/05/29 05:21:57;;;;;;;1.70;1.60;;;;;;;20.17;81.43;100014.09;1743645;82;21093;-38
2021/05/29 05:24:24;;;;;;;1.50;1.40;;;;;;;20.18;80.74;100020.20;1745138;81;20866;-38
2021/05/29 05:26:50;;;;;;;1.62;1.50;;;;;;;20.27;80.26;100027.95;1746515;82;21085;-38
2021/05/29 05:29:17;;;;;;;1.82;1.40;;;;;;;20.42;79.91;100032.17;1746234;81;21561;-37
2021/05/29 05:31:44;;;;;;;1.90;1.40;;;;;;;20.55;79.21;100031.37;1744756;82;21510;-39
2021/05/29 05:34:11;;;;;;;2.10;1.92;;;;;;;20.80;78.44;100031.88;1745154;82;21104;-37
2021/05/29 05:36:39;;;;;;;4.45;1.42;;;;;;;21.04;78.16;100030.68;1747716;81;20898;-38
2021/05/29 05:39:10;;;;;;;1.22;1.15;;;;;;;21.38;78.20;100040.64;1746303;82;20977;-36
2021/05/29 05:41:37;;;;;;;4.47;1.50;;;;;;;21.85;76.31;100031.62;1746185;82;21474;-38
2021/05/29 05:44:05;;;;;;;1.65;1.52;;;;;;;22.04;73.48;100032.42;1746355;81;20893;-36
2021/05/29 05:46:31;;;;;;;2.20;1.37;;;;;;;22.01;70.11;100037.92;1743556;82;21114;-37
2021/05/29 05:48:58;;;;;;;3.50;1.95;;;;;;;21.79;69.47;100034.22;1746315;82;20993;-36
2021/05/29 05:51:26;;;;;;;6.67;1.22;;;;;;;21.60;70.28;100044.36;1745998;82;21367;-37
2021/05/29 05:53:53;;;;;;;2.75;1.50;;;;;;;21.69;71.14;100051.65;1746268;82;20937;-36
2021/05/29 05:56:26;;;;;;;4.20;1.80;;;;;;;21.78;72.54;100053.61;1748189;82;20981;-37
2021/05/29 05:58:57;;;;;;;4.15;1.40;;;;;;;21.75;70.79;100053.83;1740609;81;21096;-36
2021/05/29 06:01:25;;;;;;;2.92;1.70;;;;;;;21.66;71.82;100061.09;1741678;82;20977;-38
2021/05/29 06:03:52;;;;;;;4.70;1.60;;;;;;;21.62;70.77;100054.33;1743070;82;20925;-38
2021/05/29 06:06:18;;;;;;;6.92;1.60;;;;;;;21.67;72.41;100043.84;1747298;81;21442;-39
2021/05/29 06:08:45;;;;;;;2.45;1.70;;;;;;;21.83;73.12;100049.34;1746221;81;21422;-37
2021/05/29 06:11:11;;;;;;;2.50;1.90;;;;;;;21.98;72.64;100057.06;1746465;82;21050;-39
2021/05/29 06:19:16;;;;;;;2.85;1.90;;;;;;;21.77;72.12;100062.47;1747548;81;21625;-37
2021/05/29 06:21:44;;;;;;;2.75;2.30;;;;;;;21.40;72.36;100066.38;1745325;81;21648;-38
2021/05/29 06:24:09;;;;;;;2.77;1.98;;;;;;;21.11;74.04;100073.20;1747320;81;21089;-37
2021/05/29 06:26:35;;;;;;;3.25;2.15;;;;;;;20.93;75.25;100070.87;1742045;82;20891;-37
2021/05/29 06:29:02;;;;;;;6.05;2.12;;;;;;;20.77;74.59;100078.08;1739765;82;20978;-38
2021/05/29 06:31:29;;;;;;;4.00;2.62;;;;;;;20.61;74.89;100076.95;1741464;81;21601;-38
2021/05/29 06:33:55;;;;;;;3.33;1.90;;;;;;;20.45;74.82;100074.51;1747686;82;20973;-38
2021/05/29 06:36:22;;;;;;;3.30;2.45;;;;;;;20.25;74.75;100077.97;1745085;82;21093;-37
2021/05/29 06:38:50;;;;;;;8.58;2.40;;;;;;;20.08;76.46;100081.69;1745109;81;21649;-38
2021/05/29 06:41:17;;;;;;;8.75;2.15;;;;;;;20.02;76.56;100078.98;1741651;81;21534;-40
2021/05/29 06:43:44;;;;;;;2.60;1.80;;;;;;;19.98;76.63;100076.18;1742884;81;21021;-40
2021/05/29 06:46:10;;;;;;;2.98;1.72;;;;;;;19.93;76.28;100084.34;1745537;81;20933;-36
2021/05/29 06:48:37;;;;;;;4.78;2.15;;;;;;;20.03;76.39;100075.41;1741740;82;21683;-37
2021/05/29 06:51:05;;;;;;;10.15;2.27;;;;;;;20.28;75.65;100079.08;1747401;81;20977;-37
2021/05/29 06:53:44;;;;;;;2.98;2.20;;;;;;;20.56;75.67;100074.63;1747069;81;20898;-38
2021/05/29 06:58:53;;;;;;;3.35;2.50;;;;;;;21.06;73.67;100070.02;1744092;80;20930;-36
2021/05/29 07:01:23;;;;;;;5.10;3.50;;;;;;;21.15;74.04;100074.67;1746043;82;22216;-36
2021/05/29 07:03:50;;;;;;;4.67;3.40;;;;;;;21.20;73.34;100086.17;1745826;81;20976;-38
2021/05/29 07:06:17;;;;;;;4.83;4.12;;;;;;;21.13;73.56;100085.77;1746069;81;21636;-39
2021/05/29 07:08:44;;;;;;;4.95;4.50;;;;;;;21.13;73.57;100084.92;1747071;82;21096;-39
2021/05/29 07:11:10;;;;;;;5.58;4.20;;;;;;;21.36;73.29;100092.55;1746698;81;21029;-37
2021/05/29 07:13:37;;;;;;;3.95;3.60;;;;;;;21.69;70.68;100092.47;1747356;80;21055;-36
2021/05/29 07:16:05;;;;;;;9.93;4.08;;;;;;;21.60;69.81;100087.34;1744586;81;20954;-37
2021/05/29 07:18:35;;;;;;;8.50;4.08;;;;;;;21.38;69.92;100087.53;1746397;81;20974;-36
2021/05/29 07:21:02;;;;;;;5.50;4.45;;;;;;;21.16;70.70;100093.45;1744636;82;20953;-36
2021/05/29 07:23:29;;;;;;;5.15;3.00;;;;;;;20.89;71.09;100085.19;1746080;82;20977;-37
2021/05/29 07:25:55;;;;;;;7.62;2.90;;;;;;;20.68;71.93;100082.16;1747526;81;21130;-39
2021/05/29 07:28:22;;;;;;;3.42;2.65;;;;;;;20.79;72.64;100081.02;1743843;82;21008;-37
2021/05/29 07:30:50;;;;;;;2.67;2.47;;;;;;;21.18;72.75;100086.75;1740371;81;21080;-36
2021/05/29 07:33:17;;;;;;;3.80;3.22;;;;;;;21.62;71.16;100085.44;1746250;81;20969;-38
2021/05/29 07:35:43;;;;;;;5.10;3.30;;;;;;;22.00;69.12;100088.12;1745504;81;21547;-38
2021/05/29 07:38:10;;;;;;;4.10;2.50;;;;;;;22.11;68.44;100085.53;1742640;81;21612;-36
2021/05/29 07:40:37;;;;;;;2.87;2.50;;;;;;;22.43;68.11;100080.98;1739404;82;21001;-40
2021/05/29 07:43:05;;;;;;;2.90;2.70;;;;;;;22.94;67.35;100077.67;1743149;81;21552;-38
2021/05/29 07:45:31;;;;;;;3.95;2.92;;;;;;;23.28;65.26;100072.93;1743053;81;21028;-37
2021/05/29 07:47:58;;;;;;;4.03;2.85;;;;;;;23.28;64.43;100071.61;1746002;82;20910;-37
2021/05/29 07:50:24;;;;;;;5.65;1.95;;;;;;;23.02;63.38;100070.48;1744568;81;21099;-38
2021/05/29 07:52:51;;;;;;;3.60;3.00;;;;;;;22.73;64.42;100066.47;1747189;81;20985;-37
2021/05/29 07:55:18;;;;;;;3.02;2.50;;;;;;;22.66;65.57;100074.50;1745613;81;21014;-36
2021/05/29 07:57:45;;;;;;;2.80;1.70;;;;;;;22.65;63.17;100069.72;1745679;82;21567;-38
2021/05/29 08:00:15;;;;;;;5.90;2.67;;;;;;;22.72;64.49;100070.56;1746700;81;21485;-39
2021/05/29 08:02:41;;;;;;;4.25;2.00;;;;;;;23.11;64.54;100073.27;1747714;81;21138;-39
2021/05/29 08:05:16;;;;;;;6.70;1.65;;;;;;;23.57;63.00;100069.79;1743506;81;21510;-39
2021/05/29 08:07:37;;;;;;;1.50;1.40;;;;;;;23.96;60.31;100071.52;1745722;81;21021;-38
2021/05/29 08:10:05;;;;;;;3.12;1.87;;;;;;;24.01;59.12;100070.69;1746386;82;21104;-36
2021/05/29 08:12:31;;;;;;;6.08;2.77;;;;;;;23.79;60.85;100077.68;1747780;81;21597;-36
2021/05/29 08:14:59;;;;;;;3.85;2.90;;;;;;;23.48;61.14;100078.81;1743448;80;21017;-38
2021/05/29 08:17:26;;;;;;;3.08;2.80;;;;;;;23.24;61.47;100085.02;1741447;82;21084;-37
2021/05/29 08:19:54;;;;;;;2.30;1.80;;;;;;;23.13;62.78;100088.99;1745696;82;20902;-37
2021/05/29 08:22:21;;;;;;;7.62;2.35;;;;;;;23.30;60.84;100085.06;1747127;81;21011;-38
2021/05/29 08:24:48;;;;;;;4.37;2.05;;;;;;;23.46;62.24;100086.02;1741446;82;20925;-38
2021/05/29 08:27:14;;;;;;;2.22;2.02;;;;;;;23.47;60.67;100092.13;1744696;82;21071;-38
2021/05/29 08:29:41;;;;;;;1.82;1.60;;;;;;;23.48;61.21;100092.02;1743893;81;20930;-36
2021/05/29 08:32:09;;;;;;;8.08;2.08;;;;;;;23.52;59.28;100088.16;1741017;81;21002;-36
2021/05/29 08:34:36;;;;;;;4.42;1.98;;;;;;;23.44;60.67;100090.58;1745212;81;20950;-38
2021/05/29 08:37:03;;;;;;;3.08;2.10;;;;;;;23.47;60.43;100086.38;1745248;80;20949;-37
2021/05/29 08:39:30;;;;;;;1.72;1.62;;;;;;;23.61;60.65;100097.63;1746845;82;21065;-36
2021/05/29 08:41:57;;;;;;;6.03;1.77;;;;;;;23.53;58.88;100092.48;1744120;81;20966;-40
2021/05/29 08:44:23;;;;;;;3.52;1.72;;;;;;;23.36;61.24;100091.17;1745562;81;23268;-40
2021/05/29 08:46:50;;;;;;;2.15;1.30;;;;;;;23.27;61.82;100091.91;1746352;81;21056;-37
2021/05/29 08:49:20;;;;;;;1.57;1.47;;;;;;;23.13;60.63;100099.55;1743680;81;21665;-38
2021/05/29 08:51:45;;;;;;;1.22;1.20;;;;;;;22.89;59.92;100091.23;1745368;82;21285;-37
2021/05/29 08:54:12;;;;;;;1.92;1.67;;;;;;;22.75;60.08;100092.75;1744162;82;20934;-38
2021/05/29 08:56:38;;;;;;;2.05;1.45;;;;;;;22.74;61.37;100097.20;1744467;81;20918;-37
2021/05/29 08:59:04;;;;;;;3.75;1.80;;;;;;;23.00;61.15;100089.09;1744892;81;21530;-39
2021/05/29 09:01:31;;;;;;;2.95;1.35;;;;;;;23.05;58.55;100086.94;1747622;82;21486;-39
2021/05/29 09:04:01;;;;;;;2.67;1.25;;;;;;;23.11;60.03;100092.20;1746028;82;21694;-36
2021/05/29 09:06:33;;;;;;;5.40;1.40;;;;;;;23.21;58.52;100082.62;1722927;81;20851;-39
2021/05/29 09:09:05;;;;;;;2.30;1.20;;;;;;;23.29;59.31;100087.81;1746585;81;21093;-40
2021/05/29 09:12:03;;;;;;;2.55;1.50;;;;;;;23.45;58.66;100092.27;1745136;80;21068;-38
2021/05/29 09:14:36;;;;;;;2.10;1.40;;;;;;;23.70;58.72;100079.75;1745428;81;21001;-37
2021/05/29 09:17:09;;;;;;;1.52;1.40;;;;;;;23.97;58.15;100078.48;1742847;81;20997;-39
2021/05/29 09:20:10;;;;;;;1.20;1.10;;;;;;;24.34;57.71;100076.81;1745697;81;21056;-38
2021/05/29 09:22:43;;;;;;;1.50;1.40;;;;;;;24.60;55.04;100067.68;1746127;81;20902;-39
2021/05/29 09:25:17;;;;;;;2.33;1.50;;;;;;;24.51;55.29;100066.64;1741936;82;21211;-37
2021/05/29 09:28:02;;;;;;;2.70;1.40;;;;;;;24.42;55.47;100060.31;1747473;81;20933;-40
2021/05/29 09:30:40;;;;;;;1.67;1.55;;;;;;;24.44;55.70;100061.02;1744666;81;21165;-37
2021/05/29 09:33:26;;;;;;;1.80;1.70;;;;;;;24.31;56.37;100065.16;1743633;82;21004;-40
2021/05/29 09:36:09;;;;;;;1.30;1.20;;;;;;;24.08;55.63;100061.29;1734851;82;20958;-40
2021/05/29 09:38:47;;;;;;;5.05;1.50;;;;;;;24.10;55.88;100059.86;1748676;81;21001;-37
2021/05/29 09:41:25;;;;;;;3.42;1.52;;;;;;;24.08;55.89;100061.29;1745949;81;20973;-38
2021/05/29 09:43:55;;;;;;;4.62;1.55;;;;;;;24.27;55.26;100055.81;1683705;84;21038;-39
2021/05/29 09:46:23;;;;;;;1.85;1.10;;;;;;;24.64;55.83;100052.75;1744683;81;20997;-38
2021/05/29 09:49:01;;;;;;;2.25;1.50;;;;;;;25.08;53.91;100052.59;1745646;81;20961;-37
2021/05/29 09:51:31;;;;;;;1.87;1.67;;;;;;;25.25;53.40;100059.07;1741479;81;21037;-37
2021/05/29 09:54:07;;;;;;;1.72;1.40;;;;;;;25.31;52.92;100052.88;1744590;82;21009;-38
2021/05/29 09:56:40;;;;;;;1.12;1.02;;;;;;;25.35;53.04;100055.61;1745419;82;21074;-41
2021/05/29 09:59:16;;;;;;;5.37;2.00;;;;;;;25.36;52.23;100053.31;1747172;82;20929;-37
2021/05/29 10:01:53;;;;;;;6.30;1.82;;;;;;;25.36;52.39;100047.55;1745606;82;20998;-38
2021/05/29 10:04:37;;;;;;;1.67;1.60;;;;;;;25.38;53.36;100050.89;1743906;82;21696;-39
2021/05/29 10:07:07;;;;;;;2.17;1.75;;;;;;;25.56;52.56;100054.73;1679141;84;20944;-40
2021/05/29 10:09:35;;;;;;;1.60;1.50;;;;;;;25.56;51.66;100049.43;1711538;83;21139;-37
2021/05/29 10:12:03;;;;;;;7.78;1.90;;;;;;;25.23;51.89;100057.52;1686651;83;20985;-41
2021/05/29 10:14:30;;;;;;;2.62;1.62;;;;;;;24.98;52.54;100051.69;1745314;80;20977;-37
2021/05/29 10:16:58;;;;;;;2.05;1.45;;;;;;;24.98;53.29;100046.40;1744464;82;21017;-38
2021/05/29 10:19:25;;;;;;;2.15;1.35;;;;;;;25.19;52.58;100045.05;1742751;82;21048;-37
2021/05/29 10:21:53;;;;;;;4.37;1.67;;;;;;;25.24;51.46;100036.69;1746873;82;21726;-39
2021/05/29 10:24:22;;;;;;;4.40;3.45;;;;;;;25.36;51.99;100038.74;1736195;81;20958;-37
2021/05/29 10:26:51;;;;;;;2.98;2.08;;;;;;;25.56;52.66;100041.02;1741427;82;21009;-38
2021/05/29 10:29:24;;;;;;;1.60;1.50;;;;;;;26.15;53.04;100026.48;1745755;81;20999;-38
2021/05/29 10:31:51;;;;;;;1.42;1.32;;;;;;;26.54;48.99;100027.80;1746130;82;20925;-39
2021/05/29 10:34:18;;;;;;;1.70;1.60;;;;;;;26.57;49.44;100018.70;1743486;82;21058;-39
2021/05/29 10:36:56;;;;;;;4.62;1.70;;;;;;;26.52;49.79;100021.80;1742739;81;21009;-37
2021/05/29 10:39:25;;;;;;;3.80;1.60;;;;;;;26.64;50.62;100019.79;1718484;82;20934;-38
2021/05/29 10:42:03;;;;;;;2.67;1.62;;;;;;;26.72;49.06;100020.41;1747492;81;20992;-38
2021/05/29 10:44:44;;;;;;;4.10;1.75;;;;;;;26.89;49.03;100015.36;1745852;81;21053;-39
2021/05/29 10:47:18;;;;;;;2.35;1.60;;;;;;;27.37;49.56;100010.80;1744331;81;21649;-39
2021/05/29 10:49:57;;;;;;;1.98;1.50;;;;;;;27.88;45.73;100011.67;1741602;82;21033;-38
2021/05/29 10:52:42;;;;;;;3.10;1.65;;;;;;;28.01;45.83;100009.95;1743589;81;21613;-39
2021/05/29 10:55:22;;;;;;;4.00;1.80;;;;;;;28.06;45.91;100007.19;1740588;82;21001;-37
2021/05/29 10:58:05;;;;;;;2.50;2.30;;;;;;;27.93;44.52;100006.75;1747252;82;21020;-37
2021/05/29 11:00:44;;;;;;;5.15;2.10;;;;;;;27.57;45.24;100009.38;1739058;82;21025;-37
2021/05/29 11:03:22;;;;;;;7.70;3.92;;;;;;;27.11;47.87;100011.48;1726779;82;20902;-37
2021/05/29 11:06:00;;;;;;;17.52;5.70;;;;;;;26.49;51.02;100012.77;1745962;81;21028;-38
2021/05/29 11:08:55;;;;;;;13.70;5.20;;;;;;;25.97;52.00;100005.14;1682918;84;21011;-36
2021/05/29 11:11:42;;;;;;;16.40;7.10;;;;;;;25.57;53.98;100013.55;1743464;81;20957;-39
2021/05/29 11:14:16;;;;;;;18.02;7.42;;;;;;;24.99;55.31;100014.98;1747445;80;21113;-37
2021/05/29 11:16:56;;;;;;;25.50;8.00;;;;;;;24.67;55.73;100008.84;1747617;81;20993;-37
2021/05/29 11:19:31;;;;;;;16.48;7.97;;;;;;;24.71;56.20;100013.36;1746235;82;20993;-37
2021/05/29 12:03:44;;;;;;;13.70;4.35;;;;;;;25.37;52.74;99970.23;1806755;79;22717;-39
2021/05/29 12:06:12;;;;;;;8.98;4.05;;;;;;;25.37;52.49;99968.91;1747207;82;21013;-38
2021/05/29 12:08:57;;;;;;;8.30;3.50;;;;;;;25.18;53.58;99970.56;1778012;80;21084;-38
2021/05/29 12:11:29;;;;;;;8.03;3.42;;;;;;;25.20;53.01;99971.73;1746511;82;21613;-37
2021/05/29 12:14:15;;;;;;;8.33;3.65;;;;;;;25.06;51.66;99974.27;1777801;80;20954;-39
2021/05/29 12:16:53;;;;;;;7.22;2.98;;;;;;;24.95;52.06;99973.41;1777964;80;21645;-39
2021/05/29 12:19:34;;;;;;;5.12;3.05;;;;;;;24.98;53.85;99985.52;1778027;80;20954;-37
2021/05/29 12:22:18;;;;;;;12.28;3.80;;;;;;;25.00;53.10;99986.72;1777968;80;21143;-38
2021/05/29 12:24:52;;;;;;;21.40;5.87;;;;;;;25.09;52.97;99993.37;1777978;80;21037;-37
2021/05/29 12:27:30;;;;;;;8.93;4.50;;;;;;;25.16;53.72;100000.78;1778017;80;20977;-37
2021/05/29 12:30:05;;;;;;;10.75;4.90;;;;;;;25.12;53.57;100006.81;1777857;80;21001;-38
2021/05/29 12:32:42;;;;;;;32.27;6.40;;;;;;;24.88;53.96;100010.62;1778318;80;20982;-37
2021/05/29 12:35:11;;;;;;;12.25;4.70;;;;;;;24.55;55.45;100012.51;1777926;80;21087;-37
2021/05/29 12:37:38;;;;;;;11.70;4.25;;;;;;;24.47;56.67;100013.66;1777914;80;20942;-38
2021/05/29 12:40:16;;;;;;;16.35;4.58;;;;;;;24.57;56.24;100017.69;1777816;80;20891;-38
2021/05/29 12:42:52;;;;;;;13.10;4.45;;;;;;;24.58;54.94;100017.53;1778038;80;21477;-39
2021/05/29 12:45:26;;;;;;;8.13;3.75;;;;;;;24.58;55.83;100017.53;1778152;80;20887;-37
2021/05/29 12:48:04;;;;;;;11.50;4.15;;;;;;;24.60;57.48;100012.95;1777876;80;20990;-40
2021/05/29 12:50:59;;;;;;;11.25;3.98;;;;;;;24.61;55.66;100012.48;1777889;80;21545;-38
2021/05/29 12:53:16;;;;;;;7.30;3.85;;;;;;;24.60;56.95;100008.98;1741927;82;20998;-40
2021/05/29 12:55:44;;;;;;;4.53;3.80;;;;;;;24.77;56.57;100006.28;1743348;82;21594;-39
2021/05/29 12:58:17;;;;;;;8.88;3.35;;;;;;;24.96;55.51;100006.84;1743423;82;20900;-42
2021/05/29 13:00:58;;;;;;;12.03;3.80;;;;;;;24.91;56.87;100006.88;1743300;82;21061;-38
2021/05/29 13:11:48;;;;;;;21.65;3.47;;;;;;;25.46;54.27;99997.72;1750779;81;20966;-37
2021/05/29 13:14:20;;;;;;;14.23;3.25;;;;;;;25.30;55.44;99991.15;1750779;82;21076;-39
2021/05/29 13:17:00;;;;;;;7.58;2.90;;;;;;;25.41;54.75;99995.50;1748386;82;21001;-37
2021/05/29 13:19:32;;;;;;;7.53;3.25;;;;;;;25.15;55.34;99990.69;1750790;82;21642;-37
2021/05/29 13:22:01;;;;;;;7.62;3.25;;;;;;;25.03;56.04;99989.95;1748364;82;21033;-38
2021/05/29 13:24:50;;;;;;;4.70;2.55;;;;;;;24.91;56.73;99985.70;1750917;81;20910;-38
2021/05/29 13:27:49;;;;;;;13.62;3.05;;;;;;;24.64;57.33;99981.33;1750840;82;21057;-38
2021/05/29 13:30:19;;;;;;;10.63;2.65;;;;;;;24.32;57.50;99984.88;1750784;82;20926;-37
2021/05/29 13:32:49;;;;;;;16.73;3.35;;;;;;;23.91;59.30;99994.43;1750758;82;20962;-39
2021/05/29 13:35:16;;;;;;;12.18;3.08;;;;;;;23.80;60.02;100005.88;1750734;82;20989;-39
2021/05/29 13:37:43;;;;;;;11.65;3.40;;;;;;;23.61;59.96;100007.36;1750813;82;20942;-40
2021/05/29 13:40:11;;;;;;;18.62;3.30;;;;;;;23.67;59.87;100012.14;1750871;82;21085;-40
2021/05/29 13:42:37;;;;;;;18.05;3.40;;;;;;;23.68;60.65;100014.31;1750705;81;21463;-39
2021/05/29 13:45:09;;;;;;;3.15;2.17;;;;;;;23.60;60.16;100015.39;1750838;82;21482;-38
2021/05/29 13:47:34;;;;;;;3.58;2.20;;;;;;;23.57;60.42;100023.56;1750390;82;21077;-38
2021/05/29 13:50:00;;;;;;;2.47;1.80;;;;;;;23.59;60.91;100029.56;1751016;82;20957;-38
2021/05/29 13:52:27;;;;;;;7.28;2.27;;;;;;;23.64;60.43;100021.64;1750768;80;21084;-40
2021/05/29 13:54:54;;;;;;;17.27;3.00;;;;;;;23.64;59.74;100022.95;1750718;82;21041;-40
2021/05/29 13:57:20;;;;;;;5.15;2.35;;;;;;;23.49;60.16;100016.25;1750942;82;20974;-38
2021/05/29 13:59:47;;;;;;;4.28;2.35;;;;;;;23.32;60.99;100012.33;1750856;82;21006;-39
2021/05/29 14:02:13;;;;;;;2.47;1.90;;;;;;;23.17;62.00;100009.92;1749055;81;21022;-38
2021/05/29 14:04:40;;;;;;;3.05;2.10;;;;;;;23.16;61.58;100002.11;1742871;82;21051;-38
2021/05/29 14:07:06;;;;;;;2.72;1.82;;;;;;;23.07;62.96;99993.11;1742760;82;21037;-39
2021/05/29 14:09:33;;;;;;;2.47;2.15;;;;;;;23.08;62.13;99993.47;1742851;82;20950;-37